Time;durP1;ratioP1;P1;durP2;ratioP2;P2;SDS_P1;SDS_P2;PMS_P1;PMS_P2;Temp;Humidity;BMP_temperature;BMP_pressure;BME280_temperature;BME280_humidity;BME280_pressure;Samples;Min_cycle;Max_cycle;Signal;HPM_P1;HPM_P2
2023/12/28 00:02:07;;;;;;;20.05;10.15;;;4.00;99.90;;;;;;4970897;28;20049;-76
2023/12/28 00:04:34;;;;;;;14.57;8.43;;;4.00;99.90;;;;;;4972305;28;20031;-76
2023/12/28 00:07:05;;;;;;;18.20;9.05;;;4.00;99.90;;;;;;4969865;28;20115;-76
2023/12/28 00:09:31;;;;;;;17.00;8.20;;;4.00;99.90;;;;;;4970641;28;20019;-76
2023/12/28 00:11:58;;;;;;;16.23;8.05;;;4.00;99.90;;;;;;4971340;28;20045;-76
2023/12/28 00:14:24;;;;;;;12.93;7.72;;;4.10;99.90;;;;;;4982242;28;20039;-74
2023/12/28 00:16:58;;;;;;;13.13;7.22;;;4.10;99.90;;;;;;4970500;28;20022;-75
2023/12/28 00:19:26;;;;;;;14.40;7.07;;;4.10;99.90;;;;;;4971937;28;20124;-75
2023/12/28 00:21:55;;;;;;;12.55;5.97;;;4.10;99.90;;;;;;4972671;28;20037;-74
2023/12/28 00:24:26;;;;;;;10.45;5.93;;;4.10;99.90;;;;;;4968559;28;20038;-74
2023/12/28 00:27:03;;;;;;;13.18;6.35;;;4.10;99.90;;;;;;4972884;28;20059;-74
2023/12/28 00:29:29;;;;;;;12.13;6.10;;;4.10;99.90;;;;;;4971472;28;20490;-74
2023/12/28 00:31:55;;;;;;;14.55;5.60;;;4.20;99.90;;;;;;4971195;28;20116;-74
2023/12/28 00:34:23;;;;;;;11.68;5.65;;;4.10;99.90;;;;;;4971880;28;20497;-75
2023/12/28 00:36:58;;;;;;;10.32;5.63;;;4.10;99.90;;;;;;4972343;28;20081;-75
2023/12/28 00:39:23;;;;;;;12.27;5.97;;;4.20;99.90;;;;;;4969682;28;20034;-75
2023/12/28 00:41:52;;;;;;;10.80;5.75;;;4.20;99.90;;;;;;4970340;28;20117;-74
2023/12/28 00:44:26;;;;;;;11.45;5.72;;;4.10;99.90;;;;;;4970691;28;20489;-74
2023/12/28 00:46:52;;;;;;;12.05;5.68;;;4.10;99.90;;;;;;4969691;28;20046;-75
2023/12/28 00:49:17;;;;;;;10.13;5.60;;;4.10;99.90;;;;;;4975532;28;20031;-74
2023/12/28 00:51:43;;;;;;;12.32;6.25;;;4.10;99.90;;;;;;4970659;28;20033;-74
2023/12/28 00:54:09;;;;;;;10.10;5.47;;;4.10;99.90;;;;;;4977369;23;20058;-75
2023/12/28 00:56:37;;;;;;;10.77;6.18;;;4.10;99.90;;;;;;4963330;28;20031;-76
2023/12/28 00:59:12;;;;;;;11.75;6.65;;;4.10;99.90;;;;;;4963110;28;20039;-76
2023/12/28 01:01:43;;;;;;;9.15;6.13;;;4.00;99.90;;;;;;4950221;28;20438;-76
2023/12/28 01:04:09;;;;;;;14.52;6.80;;;4.00;99.90;;;;;;4958857;28;20086;-76
2023/12/28 01:06:38;;;;;;;13.07;6.40;;;4.00;99.90;;;;;;4961419;28;20043;-76
2023/12/28 01:09:03;;;;;;;11.82;5.85;;;4.00;99.90;;;;;;4961283;28;20031;-76
2023/12/28 01:11:32;;;;;;;14.23;6.45;;;3.90;99.90;;;;;;4960741;28;20038;-76
2023/12/28 01:14:00;;;;;;;11.40;6.18;;;4.00;99.90;;;;;;4959057;28;20027;-76
2023/12/28 01:16:43;;;;;;;15.68;7.18;;;3.90;99.90;;;;;;4962670;28;20106;-76
2023/12/28 01:19:09;;;;;;;11.30;5.65;;;3.90;99.90;;;;;;4958468;28;20454;-76
2023/12/28 01:21:35;;;;;;;11.88;6.45;;;3.90;99.90;;;;;;4955355;28;20086;-76
2023/12/28 01:24:12;;;;;;;14.43;6.75;;;3.90;99.90;;;;;;4958660;28;20089;-77
2023/12/28 01:26:44;;;;;;;12.63;6.35;;;3.90;99.90;;;;;;4955330;28;20033;-76
2023/12/28 01:29:10;;;;;;;11.70;6.07;;;3.90;99.90;;;;;;4957427;28;20035;-76
2023/12/28 01:31:36;;;;;;;10.95;5.78;;;3.90;99.90;;;;;;4955925;28;20539;-77
2023/12/28 01:34:04;;;;;;;12.10;6.55;;;3.80;99.90;;;;;;4957376;28;20037;-77
2023/12/28 01:36:30;;;;;;;12.73;5.97;;;3.80;99.90;;;;;;4953058;28;20033;-77
2023/12/28 01:39:04;;;;;;;18.13;6.80;;;3.80;99.90;;;;;;4954102;28;20109;-77
2023/12/28 01:41:30;;;;;;;10.68;5.97;;;3.70;99.90;;;;;;4954877;28;20077;-77
2023/12/28 01:44:01;;;;;;;10.60;5.95;;;3.80;99.90;;;;;;4970180;28;20027;-75
2023/12/28 01:46:33;;;;;;;13.93;5.82;;;3.80;99.90;;;;;;4954906;28;20045;-75
2023/12/28 01:49:05;;;;;;;11.13;5.65;;;3.70;99.90;;;;;;4962035;28;20077;-77
2023/12/28 01:51:31;;;;;;;13.23;5.43;;;3.70;99.90;;;;;;4955697;28;20054;-77
2023/12/28 01:53:57;;;;;;;11.93;5.68;;;3.80;99.90;;;;;;4961883;28;20106;-77
2023/12/28 01:56:24;;;;;;;10.32;5.75;;;3.80;99.90;;;;;;4956981;28;20089;-76
2023/12/28 01:58:53;;;;;;;14.60;5.65;;;3.80;99.90;;;;;;4956120;28;20020;-77
2023/12/28 02:01:20;;;;;;;10.23;5.35;;;3.80;99.90;;;;;;4952771;28;20095;-76
2023/12/28 02:03:46;;;;;;;10.07;4.68;;;3.90;99.90;;;;;;4954103;28;20027;-75
2023/12/28 02:06:15;;;;;;;9.55;5.53;;;3.90;99.90;;;;;;4958103;28;20068;-76
2023/12/28 02:08:50;;;;;;;10.90;5.18;;;3.90;99.90;;;;;;4952477;28;20023;-77
2023/12/28 02:11:18;;;;;;;12.90;5.75;;;3.80;99.90;;;;;;4955055;28;20410;-75
2023/12/28 02:13:44;;;;;;;9.40;5.43;;;3.80;99.90;;;;;;4957837;28;20062;-76
2023/12/28 02:16:15;;;;;;;10.02;5.95;;;3.80;99.90;;;;;;4962491;28;20019;-77
2023/12/28 02:18:49;;;;;;;9.70;5.10;;;3.70;99.90;;;;;;4960815;28;20370;-77
2023/12/28 02:21:20;;;;;;;11.35;5.25;;;3.70;99.90;;;;;;4956609;28;20522;-74
2023/12/28 02:23:51;;;;;;;7.55;4.97;;;3.70;99.90;;;;;;4958439;28;20078;-77
2023/12/28 02:26:17;;;;;;;12.07;4.85;;;3.70;99.90;;;;;;4963676;28;20046;-77
2023/12/28 02:28:48;;;;;;;8.73;4.80;;;3.70;99.90;;;;;;4960043;28;20025;-75
2023/12/28 02:31:26;;;;;;;9.38;4.78;;;3.70;99.90;;;;;;4966258;28;20070;-77
2023/12/28 02:34:06;;;;;;;7.80;4.28;;;3.70;99.90;;;;;;4957401;28;20139;-75
2023/12/28 02:36:34;;;;;;;6.40;3.90;;;3.80;99.90;;;;;;4961833;28;20025;-76
2023/12/28 02:39:03;;;;;;;10.98;5.22;;;3.80;99.90;;;;;;4963016;28;20090;-77
2023/12/28 02:41:30;;;;;;;9.18;3.95;;;3.80;99.90;;;;;;4958530;28;20458;-77
2023/12/28 02:43:55;;;;;;;8.60;4.20;;;3.80;99.90;;;;;;4961035;28;20041;-77
2023/12/28 02:46:33;;;;;;;9.05;3.70;;;3.80;99.90;;;;;;4964523;28;20392;-76
2023/12/28 02:49:01;;;;;;;11.55;4.47;;;3.80;99.90;;;;;;4961165;28;20037;-76
2023/12/28 02:51:27;;;;;;;10.73;4.80;;;3.80;99.90;;;;;;4958734;28;20031;-76
2023/12/28 02:53:55;;;;;;;8.77;4.32;;;3.80;99.90;;;;;;4963614;28;20053;-76
2023/12/28 02:56:27;;;;;;;11.05;4.85;;;3.80;99.90;;;;;;4959894;28;20564;-76
2023/12/28 02:59:00;;;;;;;8.52;4.70;;;3.80;99.90;;;;;;4962540;28;20085;-77
2023/12/28 03:01:31;;;;;;;6.28;3.70;;;3.80;99.90;;;;;;4955969;28;20517;-76
2023/12/28 03:04:00;;;;;;;8.75;4.47;;;3.80;99.90;;;;;;4958407;28;20023;-76
2023/12/28 03:06:28;;;;;;;6.93;3.90;;;3.80;99.90;;;;;;4955813;28;20024;-76
2023/12/28 03:08:54;;;;;;;7.10;3.88;;;3.80;99.90;;;;;;4960004;28;20451;-77
2023/12/28 03:11:20;;;;;;;8.13;4.47;;;3.80;99.90;;;;;;4957028;28;20039;-76
2023/12/28 03:13:46;;;;;;;7.07;3.75;;;3.80;99.90;;;;;;4965701;28;20041;-77
2023/12/28 03:16:15;;;;;;;7.85;3.88;;;3.80;99.90;;;;;;4954069;28;20023;-76
2023/12/28 03:18:40;;;;;;;11.02;4.43;;;3.80;99.90;;;;;;4959103;28;20094;-77
2023/12/28 03:21:12;;;;;;;8.52;4.05;;;3.80;99.90;;;;;;4959180;28;20031;-76
2023/12/28 03:23:38;;;;;;;8.70;3.72;;;3.80;99.90;;;;;;4957394;28;20035;-76
2023/12/28 03:26:09;;;;;;;7.90;4.10;;;3.80;99.90;;;;;;4960532;28;20508;-77
2023/12/28 03:28:35;;;;;;;9.35;4.25;;;3.90;99.90;;;;;;4960148;28;20634;-76
2023/12/28 03:31:03;;;;;;;9.68;3.92;;;3.80;99.90;;;;;;4957800;28;20093;-76
2023/12/28 03:33:31;;;;;;;7.07;3.45;;;3.80;99.90;;;;;;4958560;28;20054;-76
2023/12/28 03:36:00;;;;;;;5.88;3.10;;;3.90;99.90;;;;;;4960451;28;20034;-76
2023/12/28 03:38:27;;;;;;;6.80;3.40;;;3.90;99.90;;;;;;4972568;28;20027;-75
2023/12/28 03:40:56;;;;;;;7.65;2.75;;;3.90;99.90;;;;;;4960254;28;20031;-77
2023/12/28 03:43:31;;;;;;;5.43;3.00;;;3.90;99.90;;;;;;4958924;28;20038;-75
2023/12/28 03:45:59;;;;;;;6.65;3.13;;;3.90;99.90;;;;;;4961980;28;20095;-76
2023/12/28 03:48:28;;;;;;;7.13;3.42;;;3.90;99.90;;;;;;4963619;28;20043;-77
2023/12/28 03:50:57;;;;;;;8.35;3.17;;;4.00;99.90;;;;;;4956371;28;20034;-76
2023/12/28 03:53:25;;;;;;;5.57;3.28;;;4.00;99.90;;;;;;4957980;28;20047;-76
2023/12/28 03:56:00;;;;;;;7.57;3.53;;;4.00;99.90;;;;;;4956180;28;20066;-76
2023/12/28 03:58:26;;;;;;;8.27;3.80;;;4.00;99.90;;;;;;4960241;28;20022;-77
2023/12/28 04:00:52;;;;;;;4.75;3.00;;;4.00;99.90;;;;;;4958292;28;20038;-76
2023/12/28 04:03:18;;;;;;;7.40;3.55;;;4.00;99.90;;;;;;4961306;28;20046;-74
2023/12/28 04:05:46;;;;;;;6.18;3.17;;;4.00;99.90;;;;;;4955074;28;20031;-77
2023/12/28 04:08:12;;;;;;;5.22;2.75;;;4.00;99.90;;;;;;4962032;28;20027;-77
2023/12/28 04:10:37;;;;;;;3.97;2.28;;;4.10;99.90;;;;;;4954874;28;20035;-75
2023/12/28 04:13:06;;;;;;;6.05;2.45;;;4.10;99.90;;;;;;4962204;28;20525;-76
2023/12/28 04:15:31;;;;;;;7.10;3.22;;;4.20;99.90;;;;;;4954614;28;20027;-76
2023/12/28 04:17:57;;;;;;;5.53;2.70;;;4.20;99.90;;;;;;4955727;28;20020;-76
2023/12/28 04:20:26;;;;;;;5.53;2.20;;;4.20;99.90;;;;;;4955270;28;20027;-75
2023/12/28 04:22:51;;;;;;;9.18;3.40;;;4.20;99.90;;;;;;4985229;28;20110;-76
2023/12/28 04:25:18;;;;;;;5.80;3.08;;;4.20;99.90;;;;;;4957215;28;20558;-75
2023/12/28 04:27:44;;;;;;;5.82;2.78;;;4.20;99.90;;;;;;4957406;28;20020;-75
2023/12/28 04:30:15;;;;;;;8.10;2.85;;;4.20;99.90;;;;;;4956567;28;20047;-76
2023/12/28 04:32:50;;;;;;;5.85;3.15;;;4.20;99.90;;;;;;4953690;28;20032;-75
2023/12/28 04:35:16;;;;;;;4.80;2.42;;;4.20;99.90;;;;;;4955180;28;20074;-74
2023/12/28 04:37:47;;;;;;;5.20;2.50;;;4.10;99.90;;;;;;4959594;28;20046;-75
2023/12/28 04:40:17;;;;;;;5.75;2.58;;;4.20;99.90;;;;;;4986681;28;20090;-74
2023/12/28 04:42:45;;;;;;;7.43;2.13;;;4.20;99.90;;;;;;4953382;28;20078;-74
2023/12/28 04:45:17;;;;;;;3.80;2.30;;;4.20;99.90;;;;;;4956469;28;20062;-75
2023/12/28 04:47:45;;;;;;;4.53;2.08;;;4.30;99.90;;;;;;4957765;28;20031;-76
2023/12/28 04:50:11;;;;;;;5.13;2.83;;;4.30;99.90;;;;;;4959865;28;20086;-75
2023/12/28 04:52:42;;;;;;;5.25;2.25;;;4.30;99.90;;;;;;4957495;28;20043;-75
2023/12/28 04:55:11;;;;;;;9.18;2.17;;;4.30;99.90;;;;;;4956966;28;20034;-76
2023/12/28 04:57:41;;;;;;;5.20;2.03;;;4.30;99.90;;;;;;4958733;28;20037;-77
2023/12/28 05:00:10;;;;;;;5.13;2.00;;;4.40;99.90;;;;;;4989521;28;20034;-75
2023/12/28 05:02:36;;;;;;;5.00;1.90;;;4.40;99.90;;;;;;4956992;28;20035;-75
2023/12/28 05:05:01;;;;;;;4.65;1.65;;;4.40;99.90;;;;;;4956149;28;20034;-75
2023/12/28 05:07:27;;;;;;;5.13;1.60;;;4.50;99.90;;;;;;4957945;28;20031;-75
2023/12/28 05:09:52;;;;;;;5.30;2.05;;;4.50;99.90;;;;;;4961524;28;20465;-76
2023/12/28 05:12:19;;;;;;;7.43;1.50;;;4.60;99.90;;;;;;4961017;28;20533;-76
2023/12/28 05:14:47;;;;;;;4.28;1.65;;;4.70;99.90;;;;;;4958926;28;20037;-75
2023/12/28 05:17:16;;;;;;;3.35;1.73;;;4.80;99.90;;;;;;4959531;28;20031;-76
2023/12/28 05:19:41;;;;;;;2.92;1.13;;;4.90;99.90;;;;;;4958322;28;20037;-75
2023/12/28 05:22:16;;;;;;;2.55;1.30;;;5.00;99.90;;;;;;4957789;28;20031;-75
2023/12/28 05:24:42;;;;;;;2.50;1.20;;;5.10;99.90;;;;;;4955471;28;20062;-74
2023/12/28 05:27:19;;;;;;;3.40;1.30;;;5.20;99.90;;;;;;4974386;28;20069;-75
2023/12/28 05:29:51;;;;;;;3.60;1.70;;;5.20;99.90;;;;;;4959621;28;20572;-76
2023/12/28 05:32:17;;;;;;;2.78;1.70;;;5.30;99.90;;;;;;4953196;28;20064;-75
2023/12/28 05:34:46;;;;;;;4.68;1.65;;;5.30;99.90;;;;;;4958635;28;20027;-76
2023/12/28 05:37:11;;;;;;;2.45;1.45;;;5.30;99.90;;;;;;4966502;28;20077;-77
2023/12/28 05:39:40;;;;;;;6.15;2.67;;;5.30;99.90;;;;;;4955767;28;20026;-75
2023/12/28 05:42:08;;;;;;;6.90;2.45;;;5.40;99.90;;;;;;4958395;28;20034;-77
2023/12/28 05:44:34;;;;;;;4.65;1.98;;;5.40;99.90;;;;;;4955054;28;20035;-77
2023/12/28 05:47:18;;;;;;;3.83;2.25;;;5.30;99.90;;;;;;4957809;28;20041;-77
2023/12/28 05:49:52;;;;;;;7.55;2.45;;;5.30;99.90;;;;;;4954245;28;20027;-77
2023/12/28 05:52:27;;;;;;;5.75;2.53;;;5.30;99.90;;;;;;4958324;28;20039;-76
2023/12/28 05:54:54;;;;;;;4.88;3.00;;;5.30;99.90;;;;;;4956536;28;20035;-77
2023/12/28 05:57:20;;;;;;;5.60;2.47;;;5.30;99.90;;;;;;4955064;28;20426;-77
2023/12/28 05:59:48;;;;;;;5.25;2.03;;;5.30;99.90;;;;;;4954249;28;20026;-77
2023/12/28 06:02:16;;;;;;;4.00;2.10;;;5.40;99.90;;;;;;4961598;28;20074;-77
2023/12/28 06:04:45;;;;;;;2.72;1.55;;;5.50;99.90;;;;;;4953735;28;20028;-76
2023/12/28 06:07:14;;;;;;;4.32;1.88;;;5.50;99.90;;;;;;4958462;28;20433;-76
2023/12/28 06:09:48;;;;;;;3.05;1.65;;;5.50;99.90;;;;;;4960033;28;20372;-76
2023/12/28 06:12:20;;;;;;;4.03;2.03;;;5.60;99.90;;;;;;4961421;28;20114;-77
2023/12/28 06:15:02;;;;;;;6.97;2.08;;;5.60;99.90;;;;;;4962006;28;20486;-77
2023/12/28 06:17:27;;;;;;;4.60;1.88;;;5.60;99.90;;;;;;4953320;28;20062;-76
2023/12/28 06:20:08;;;;;;;3.63;1.55;;;5.60;99.90;;;;;;4958411;28;20035;-77
2023/12/28 06:22:36;;;;;;;3.25;1.48;;;5.70;99.90;;;;;;4957763;28;20082;-77
2023/12/28 06:25:06;;;;;;;2.63;1.63;;;5.70;99.90;;;;;;4958608;28;20446;-76
2023/12/28 06:27:34;;;;;;;5.68;1.90;;;5.80;99.90;;;;;;4957993;28;20027;-77
2023/12/28 06:30:07;;;;;;;3.50;1.67;;;5.80;99.90;;;;;;4960240;28;20502;-79
2023/12/28 06:32:35;;;;;;;5.70;1.10;;;5.90;99.90;;;;;;4957299;28;20119;-77
2023/12/28 06:35:29;;;;;;;3.95;1.25;;;6.00;99.90;;;;;;4950294;28;20287;-77
2023/12/28 06:37:55;;;;;;;1.73;0.90;;;6.10;99.90;;;;;;4960338;28;20027;-77
2023/12/28 06:40:26;;;;;;;3.47;1.65;;;6.10;99.90;;;;;;4960438;28;20398;-75
2023/12/28 06:42:52;;;;;;;4.95;1.25;;;6.30;99.90;;;;;;4956545;28;20062;-77
2023/12/28 06:45:26;;;;;;;4.20;1.02;;;6.40;99.90;;;;;;4958450;28;20050;-76
2023/12/28 06:47:55;;;;;;;1.95;1.00;;;6.50;99.90;;;;;;4951039;28;20537;-77
2023/12/28 06:50:21;;;;;;;2.50;0.98;;;6.70;99.90;;;;;;4964555;28;20478;-76
2023/12/28 06:52:49;;;;;;;3.85;0.90;;;6.70;99.90;;;;;;4957146;28;20552;-77
2023/12/28 06:55:15;;;;;;;4.85;1.10;;;6.80;99.90;;;;;;4957602;28;20505;-74
2023/12/28 06:57:40;;;;;;;1.35;0.55;;;6.90;99.90;;;;;;4954443;28;20074;-74
2023/12/28 07:00:07;;;;;;;1.50;0.90;;;6.90;99.90;;;;;;4950134;28;20034;-74
2023/12/28 07:02:32;;;;;;;3.00;0.70;;;7.00;99.90;;;;;;4953954;28;20078;-71
2023/12/28 07:04:58;;;;;;;1.85;0.77;;;7.00;99.90;;;;;;4956233;28;20443;-73
2023/12/28 07:07:23;;;;;;;1.35;0.70;;;7.10;99.90;;;;;;4956562;28;20035;-74
2023/12/28 07:09:55;;;;;;;3.47;1.30;;;7.10;99.90;;;;;;4954750;28;20030;-71
2023/12/28 07:12:26;;;;;;;2.88;0.90;;;7.20;99.90;;;;;;4957258;28;20034;-73
2023/12/28 07:14:58;;;;;;;3.85;1.30;;;7.20;99.90;;;;;;4958649;28;20031;-72
2023/12/28 07:17:23;;;;;;;6.15;1.48;;;7.30;99.90;;;;;;4960749;28;20472;-73
2023/12/28 07:19:49;;;;;;;1.65;1.17;;;7.30;99.90;;;;;;4961809;28;20479;-72
2023/12/28 07:22:21;;;;;;;1.73;0.88;;;7.30;99.90;;;;;;4962979;28;20511;-71
2023/12/28 07:24:49;;;;;;;3.45;1.35;;;7.40;99.90;;;;;;4961336;28;20034;-72
2023/12/28 07:27:15;;;;;;;3.78;1.35;;;7.40;99.90;;;;;;4973824;28;20034;-73
2023/12/28 07:29:50;;;;;;;2.83;1.25;;;7.40;99.90;;;;;;4956050;28;20027;-73
2023/12/28 07:32:20;;;;;;;2.67;1.20;;;7.40;99.90;;;;;;4966114;28;20386;-72
2023/12/28 07:34:54;;;;;;;6.30;1.88;;;7.50;99.90;;;;;;4955374;28;20042;-72
2023/12/28 07:37:29;;;;;;;6.15;1.63;;;7.50;99.90;;;;;;4956021;28;20090;-73
2023/12/28 07:39:58;;;;;;;4.70;1.80;;;7.50;99.90;;;;;;4957784;28;20627;-74
2023/12/28 07:42:26;;;;;;;3.30;1.75;;;7.50;99.90;;;;;;4952706;28;20032;-73
2023/12/28 07:44:55;;;;;;;6.18;2.47;;;7.60;99.90;;;;;;4959747;28;20490;-72
2023/12/28 07:47:21;;;;;;;7.57;1.73;;;7.50;99.90;;;;;;4949603;28;20086;-72
2023/12/28 07:49:47;;;;;;;5.00;2.45;;;7.50;99.90;;;;;;4953941;28;20426;-72
2023/12/28 07:52:18;;;;;;;7.97;2.35;;;7.50;99.90;;;;;;4956120;28;20482;-72
2023/12/28 07:54:44;;;;;;;6.00;1.98;;;7.60;99.90;;;;;;4953881;28;20039;-73
2023/12/28 07:57:09;;;;;;;6.53;2.13;;;7.60;99.90;;;;;;4960884;28;20594;-72
2023/12/28 07:59:38;;;;;;;4.50;2.20;;;7.60;99.90;;;;;;4963688;28;20027;-72
2023/12/28 08:02:04;;;;;;;7.55;2.25;;;7.60;99.90;;;;;;4953212;28;20479;-72
2023/12/28 08:04:35;;;;;;;5.50;2.42;;;7.60;99.90;;;;;;4957309;28;20090;-73
2023/12/28 08:07:10;;;;;;;9.05;2.60;;;7.60;99.90;;;;;;4959542;28;20070;-73
2023/12/28 08:09:38;;;;;;;7.38;2.20;;;7.70;99.90;;;;;;4970789;28;20039;-74
2023/12/28 08:12:07;;;;;;;7.82;2.83;;;7.70;99.90;;;;;;4955198;28;20039;-73
2023/12/28 08:14:45;;;;;;;6.05;3.17;;;7.70;99.90;;;;;;4956229;28;20094;-73
2023/12/28 08:17:10;;;;;;;5.07;2.22;;;7.70;99.90;;;;;;4954412;28;20019;-73
2023/12/28 08:19:42;;;;;;;4.18;1.90;;;7.80;99.90;;;;;;4956070;28;20430;-73
2023/12/28 08:22:10;;;;;;;6.00;2.45;;;7.80;99.90;;;;;;4952498;28;20095;-74
2023/12/28 08:24:36;;;;;;;8.40;3.33;;;7.80;99.90;;;;;;4955981;28;20035;-73
2023/12/28 08:27:05;;;;;;;10.45;3.55;;;7.80;99.90;;;;;;4953673;28;20569;-72
2023/12/28 08:29:31;;;;;;;11.68;4.15;;;7.80;99.90;;;;;;4951346;28;20027;-72
2023/12/28 08:32:06;;;;;;;15.60;4.40;;;7.80;99.90;;;;;;4957929;28;20090;-74
2023/12/28 08:34:32;;;;;;;16.45;4.78;;;7.70;99.90;;;;;;4956133;28;20029;-75
2023/12/28 08:36:57;;;;;;;11.18;3.88;;;7.80;99.90;;;;;;4955545;28;20019;-74
2023/12/28 08:39:23;;;;;;;12.88;4.45;;;7.80;99.90;;;;;;4966196;28;20027;-73
2023/12/28 08:41:48;;;;;;;5.63;3.22;;;7.90;99.90;;;;;;4961410;28;20027;-80
2023/12/28 08:44:14;;;;;;;8.07;2.88;;;7.90;99.90;;;;;;4953948;28;20055;-68
2023/12/28 08:46:52;;;;;;;6.50;3.03;;;7.90;99.90;;;;;;4960005;28;20109;-71
2023/12/28 08:49:18;;;;;;;4.88;2.92;;;8.00;99.90;;;;;;4952412;28;20045;-74
2023/12/28 08:51:46;;;;;;;5.82;3.28;;;8.00;99.90;;;;;;4958020;28;20035;-72
2023/12/28 08:54:12;;;;;;;6.40;3.00;;;8.00;99.90;;;;;;4958411;28;20046;-73
2023/12/28 08:56:37;;;;;;;4.88;2.78;;;8.00;99.90;;;;;;4951898;28;20027;-74
2023/12/28 08:59:03;;;;;;;7.70;3.35;;;8.10;99.90;;;;;;4959879;28;20029;-72
2023/12/28 09:01:35;;;;;;;6.30;3.38;;;8.10;99.90;;;;;;4954176;28;20495;-74
2023/12/28 09:04:01;;;;;;;7.30;3.97;;;8.10;99.90;;;;;;4956186;28;20034;-73
2023/12/28 09:06:32;;;;;;;10.13;3.53;;;8.10;99.90;;;;;;4985945;28;20031;-72
2023/12/28 09:08:58;;;;;;;10.02;3.53;;;8.10;99.90;;;;;;4953109;28;20122;-74
2023/12/28 09:11:29;;;;;;;10.85;4.10;;;8.10;99.90;;;;;;4963986;28;20446;-74
2023/12/28 09:13:55;;;;;;;7.78;3.15;;;8.00;99.90;;;;;;4958233;28;20040;-73
2023/12/28 09:16:28;;;;;;;9.32;3.65;;;8.10;99.90;;;;;;4963555;28;20379;-74
2023/12/28 09:18:53;;;;;;;7.07;4.00;;;8.10;99.90;;;;;;4948484;28;20019;-73
2023/12/28 09:21:22;;;;;;;8.00;3.78;;;8.10;99.90;;;;;;4962058;28;20027;-72
2023/12/28 09:23:57;;;;;;;9.25;3.90;;;8.20;99.90;;;;;;4959904;28;20032;-72
2023/12/28 09:26:22;;;;;;;7.93;3.85;;;8.20;99.90;;;;;;4954344;28;20031;-72
2023/12/28 09:28:48;;;;;;;10.48;4.15;;;8.20;99.90;;;;;;4960677;28;20086;-74
2023/12/28 09:31:17;;;;;;;9.40;3.70;;;8.30;99.90;;;;;;4955918;28;20107;-75
2023/12/28 09:33:43;;;;;;;8.48;4.20;;;8.30;99.90;;;;;;4958451;28;20039;-73
2023/12/28 09:36:12;;;;;;;8.48;4.10;;;8.30;99.90;;;;;;4956510;28;20042;-72
2023/12/28 09:38:44;;;;;;;8.15;4.30;;;8.30;99.90;;;;;;4962660;28;20021;-74
2023/12/28 09:41:14;;;;;;;8.95;4.15;;;8.30;99.90;;;;;;4952638;28;20018;-73
2023/12/28 09:43:57;;;;;;;8.15;3.72;;;8.30;99.90;;;;;;4985073;28;20061;-75
2023/12/28 09:46:32;;;;;;;10.27;3.65;;;8.30;99.90;;;;;;4961105;28;20497;-75
2023/12/28 09:48:58;;;;;;;6.38;3.00;;;8.30;99.90;;;;;;4958849;28;20023;-74
2023/12/28 09:51:27;;;;;;;7.10;3.80;;;8.40;99.90;;;;;;4960852;28;20687;-74
2023/12/28 09:53:53;;;;;;;10.13;3.58;;;8.50;99.90;;;;;;4952493;28;20030;-75
2023/12/28 09:56:19;;;;;;;5.63;3.58;;;8.50;99.90;;;;;;4961779;28;20482;-74
2023/12/28 09:58:55;;;;;;;6.15;2.95;;;8.60;99.90;;;;;;4952947;28;20028;-74
2023/12/28 10:01:21;;;;;;;9.90;4.40;;;8.60;99.90;;;;;;4959229;28;20019;-74
2023/12/28 10:03:46;;;;;;;8.85;2.97;;;8.70;99.90;;;;;;4960070;28;20161;-74
2023/12/28 10:06:24;;;;;;;8.20;4.07;;;8.80;99.90;;;;;;4989562;28;20560;-74
2023/12/28 10:08:50;;;;;;;13.05;4.00;;;8.80;99.90;;;;;;4952883;28;20035;-74
2023/12/28 10:11:17;;;;;;;7.95;3.53;;;8.80;99.90;;;;;;4959690;28;20034;-73
2023/12/28 10:13:53;;;;;;;6.15;3.17;;;8.80;99.90;;;;;;4954040;28;20061;-74
2023/12/28 10:16:19;;;;;;;8.40;3.40;;;8.80;99.90;;;;;;4954367;28;20027;-74
2023/12/28 10:18:47;;;;;;;7.97;3.55;;;8.90;99.90;;;;;;4962444;28;20046;-74
2023/12/28 10:21:13;;;;;;;8.35;3.83;;;8.90;99.90;;;;;;4954306;28;20032;-74
2023/12/28 10:23:44;;;;;;;6.32;2.70;;;8.90;99.90;;;;;;4965572;28;20070;-73
2023/12/28 10:26:13;;;;;;;5.82;3.10;;;9.00;99.90;;;;;;4954364;28;20034;-74
2023/12/28 10:28:45;;;;;;;6.03;2.50;;;9.00;99.90;;;;;;4951700;28;20490;-74
2023/12/28 10:31:11;;;;;;;6.88;2.40;;;9.10;99.90;;;;;;4955093;28;20170;-74
2023/12/28 10:33:42;;;;;;;5.10;1.90;;;9.10;99.90;;;;;;4953675;28;20532;-74
2023/12/28 10:36:08;;;;;;;4.45;1.83;;;9.20;99.90;;;;;;4953802;28;20027;-74
2023/12/28 10:38:38;;;;;;;5.20;1.40;;;9.30;99.90;;;;;;4959588;28;20023;-75
2023/12/28 10:41:07;;;;;;;2.13;1.45;;;9.40;99.90;;;;;;4967526;28;20024;-74
2023/12/28 10:44:04;;;;;;;3.60;1.30;;;9.50;99.90;;;;;;4956620;28;20402;-74
2023/12/28 10:46:38;;;;;;;3.08;1.48;;;9.60;99.90;;;;;;4959057;28;20034;-74
2023/12/28 10:49:16;;;;;;;2.10;1.20;;;9.60;99.90;;;;;;4951021;28;20113;-74
2023/12/28 10:51:43;;;;;;;2.90;1.30;;;9.70;99.90;;;;;;4959312;28;20023;-74
2023/12/28 10:54:40;;;;;;;4.47;1.60;;;9.70;99.90;;;;;;4961244;28;20020;-74
2023/12/28 10:57:32;;;;;;;2.92;1.27;;;9.70;99.90;;;;;;4956935;28;20028;-74
2023/12/28 11:00:21;;;;;;;2.97;1.20;;;9.70;99.90;;;;;;4954349;28;20047;-73
2023/12/28 11:02:56;;;;;;;2.53;1.25;;;9.80;99.90;;;;;;4958501;28;20078;-74
2023/12/28 11:05:27;;;;;;;3.10;1.42;;;9.80;99.90;;;;;;4957068;28;20031;-73
2023/12/28 11:07:56;;;;;;;3.42;1.08;;;9.80;99.90;;;;;;4952397;28;20062;-74
2023/12/28 11:10:28;;;;;;;4.22;1.58;;;9.90;99.90;;;;;;4959158;28;20023;-74
2023/12/28 11:12:56;;;;;;;2.15;1.02;;;9.90;99.90;;;;;;4953291;28;20620;-74
2023/12/28 11:15:29;;;;;;;2.58;1.40;;;10.00;99.90;;;;;;4951093;28;20038;-74
2023/12/28 11:17:55;;;;;;;2.78;1.35;;;10.10;99.90;;;;;;4951964;28;20019;-74
2023/12/28 11:20:21;;;;;;;5.13;1.70;;;10.10;99.90;;;;;;4953638;28;20034;-74
2023/12/28 11:22:48;;;;;;;4.10;1.33;;;10.20;99.90;;;;;;4953072;28;20030;-74
2023/12/28 11:25:18;;;;;;;2.80;1.40;;;10.30;99.90;;;;;;4958528;28;20038;-74
2023/12/28 11:27:46;;;;;;;1.92;0.88;;;10.30;99.90;;;;;;4948261;28;20163;-73
2023/12/28 11:30:17;;;;;;;1.27;0.90;;;10.40;99.90;;;;;;4958193;28;20027;-74
2023/12/28 11:32:43;;;;;;;4.35;1.10;;;10.50;99.90;;;;;;4943986;28;20027;-73
2023/12/28 11:35:17;;;;;;;1.65;0.95;;;10.60;99.90;;;;;;4950337;28;20027;-75
2023/12/28 11:37:48;;;;;;;2.60;1.20;;;10.60;99.90;;;;;;4955997;28;20478;-73
2023/12/28 11:40:18;;;;;;;1.63;1.05;;;10.70;99.90;;;;;;4953429;28;20110;-74
2023/12/28 11:42:54;;;;;;;3.10;1.13;;;10.80;99.90;;;;;;4948915;28;20115;-74
2023/12/28 11:45:23;;;;;;;1.95;1.10;;;10.80;99.90;;;;;;4951859;28;20110;-74
2023/12/28 11:48:02;;;;;;;1.98;1.00;;;10.90;99.90;;;;;;4950944;28;20027;-74
2023/12/28 11:50:28;;;;;;;2.63;0.85;;;11.00;99.90;;;;;;4953646;28;20037;-73
2023/12/28 11:52:53;;;;;;;3.15;1.30;;;11.00;99.90;;;;;;4953957;28;20031;-74
2023/12/28 11:55:23;;;;;;;2.50;1.30;;;11.00;99.90;;;;;;4952200;28;20035;-74
2023/12/28 11:57:58;;;;;;;3.03;1.10;;;11.00;99.90;;;;;;4954446;28;20110;-73
2023/12/28 12:00:25;;;;;;;2.95;1.40;;;11.10;99.90;;;;;;4946815;28;20085;-74
2023/12/28 12:02:51;;;;;;;2.33;1.13;;;11.10;99.90;;;;;;4952773;28;20027;-72
2023/12/28 12:05:17;;;;;;;3.78;1.52;;;11.10;99.90;;;;;;4953443;28;20379;-74
2023/12/28 12:07:45;;;;;;;2.17;0.98;;;11.10;99.90;;;;;;4952828;28;20165;-72
2023/12/28 12:10:15;;;;;;;3.08;1.73;;;11.10;99.90;;;;;;4967525;28;20065;-73
2023/12/28 12:12:47;;;;;;;4.10;1.65;;;11.10;99.90;;;;;;4953584;28;20053;-73
2023/12/28 12:15:19;;;;;;;2.35;1.00;;;11.10;99.90;;;;;;4958166;28;20031;-74
2023/12/28 12:17:48;;;;;;;2.38;1.02;;;11.10;99.90;;;;;;4953247;28;20046;-74
2023/12/28 12:20:16;;;;;;;2.78;1.25;;;11.20;99.90;;;;;;4959583;28;20065;-74
2023/12/28 12:22:42;;;;;;;3.30;1.40;;;11.10;99.90;;;;;;4957253;28;20023;-74
2023/12/28 12:25:09;;;;;;;3.10;1.75;;;11.10;99.90;;;;;;4954128;28;20039;-74
2023/12/28 12:27:40;;;;;;;3.00;1.95;;;11.10;99.90;;;;;;4953753;28;20144;-74
2023/12/28 12:30:09;;;;;;;4.43;2.35;;;11.00;99.90;;;;;;4951845;28;20030;-73
2023/12/28 12:32:39;;;;;;;3.83;2.03;;;11.00;99.90;;;;;;4951388;28;20027;-74
2023/12/28 12:35:06;;;;;;;4.47;1.67;;;10.90;99.90;;;;;;4954090;28;20034;-74
2023/12/28 12:37:38;;;;;;;5.93;2.13;;;11.00;99.90;;;;;;4950299;28;20028;-73
2023/12/28 12:40:17;;;;;;;4.20;1.75;;;11.00;99.90;;;;;;4949742;28;20569;-74
2023/12/28 12:42:43;;;;;;;4.30;1.92;;;10.90;99.90;;;;;;4953230;28;20422;-73
2023/12/28 12:45:18;;;;;;;2.08;1.25;;;10.90;99.90;;;;;;4968075;28;20486;-74
2023/12/28 12:47:51;;;;;;;2.20;1.42;;;10.90;99.90;;;;;;4951688;28;20035;-73
2023/12/28 12:50:19;;;;;;;2.93;1.43;;;10.90;99.90;;;;;;4950698;28;20121;-74
2023/12/28 12:52:45;;;;;;;1.90;1.20;;;10.90;99.90;;;;;;4945811;28;20644;-73
2023/12/28 12:55:17;;;;;;;2.50;1.20;;;10.90;99.90;;;;;;4993107;23;20404;-74
2023/12/28 12:57:43;;;;;;;2.25;1.15;;;10.90;99.90;;;;;;4988328;28;20465;-75
2023/12/28 13:00:12;;;;;;;1.48;0.90;;;10.90;99.90;;;;;;4987205;28;20112;-75
2023/12/28 13:02:44;;;;;;;2.38;1.65;;;10.90;99.90;;;;;;4985242;28;20190;-75
2023/12/28 13:05:11;;;;;;;1.92;1.20;;;11.00;99.90;;;;;;4968903;28;20496;-75